createdAt,value
2018-10-19T00:06:26.913Z,101857.30
2018-10-19T00:14:47.953Z,101851.09
2018-10-19T00:23:09.089Z,101844.73
2018-10-19T00:31:30.116Z,101842.20
2018-10-19T00:39:51.120Z,101840.02
2018-10-19T00:48:12.154Z,101837.37
2018-10-19T00:56:33.157Z,101833.66
2018-10-19T01:04:54.242Z,101833.91
2018-10-19T01:13:15.262Z,101826.82
2018-10-19T01:21:36.346Z,101827.09
2018-10-19T01:29:57.734Z,101832.69
2018-10-19T01:38:18.748Z,101826.66
2018-10-19T01:46:39.745Z,101832.69
2018-10-19T01:55:01.803Z,101829.66
2018-10-19T02:03:22.804Z,101834.39
2018-10-19T02:11:43.843Z,101834.17
2018-10-19T02:20:04.859Z,101840.98
2018-10-19T02:28:25.875Z,101842.28
2018-10-19T02:36:46.939Z,101844.53
2018-10-19T02:45:08.033Z,101828.94
2018-10-19T02:53:29.057Z,101828.84
2018-10-19T03:01:50.083Z,101830.33
2018-10-19T03:10:12.148Z,101844.02
2018-10-19T03:18:33.187Z,101851.26
2018-10-19T03:26:54.229Z,101844.15
2018-10-19T03:35:15.339Z,101830.14
2018-10-19T03:43:36.268Z,101832.34
2018-10-19T03:52:02.260Z,101831.91
2018-10-19T04:00:23.283Z,101834.51
2018-10-19T04:25:38.225Z,101849.98
2018-10-19T04:42:25.644Z,101846.25
2018-10-19T04:50:46.596Z,101849.14
2018-10-19T04:59:08.013Z,101842.22
2018-10-19T05:07:28.945Z,101847.64
2018-10-19T05:15:50.056Z,101846.92
2018-10-19T05:24:11.066Z,101847.39
2018-10-19T05:32:33.132Z,101857.68
2018-10-19T05:40:55.223Z,101853.48
2018-10-19T05:49:20.052Z,101856.00
2018-10-19T05:57:41.095Z,101857.75
2018-10-19T06:06:02.094Z,101853.00
2018-10-19T06:14:23.203Z,101857.14
2018-10-19T06:22:44.254Z,101868.00
2018-10-19T06:31:05.277Z,101882.53
2018-10-19T06:39:26.416Z,101876.44
2018-10-19T06:47:47.445Z,101885.45
2018-10-19T06:56:08.496Z,101888.88
2018-10-19T07:04:29.515Z,101889.36
2018-10-19T07:12:51.623Z,101889.73
2018-10-19T07:21:12.687Z,101895.75
2018-10-19T07:29:34.079Z,101898.16
2018-10-19T07:37:55.154Z,101891.73
2018-10-19T07:46:16.152Z,101895.22
2018-10-19T07:54:37.342Z,101899.94
2018-10-19T08:02:58.320Z,101907.35
2018-10-19T08:11:19.358Z,101914.13
2018-10-19T08:19:40.348Z,101915.81
2018-10-19T08:28:01.414Z,101919.95
2018-10-19T08:36:22.450Z,101923.44
2018-10-19T08:44:43.475Z,101922.51
2018-10-19T08:53:06.719Z,101936.93
2018-10-19T09:01:28.456Z,101949.00
2018-10-19T09:09:49.459Z,101948.05
2018-10-19T09:18:10.494Z,101936.80
2018-10-19T09:26:31.492Z,101928.85
2018-10-19T09:34:52.581Z,101926.14
2018-10-19T09:43:13.658Z,101929.19
2018-10-19T09:51:34.727Z,101908.78
2018-10-19T09:59:57.858Z,101907.25
2018-10-19T10:08:20.950Z,101910.03
2018-10-19T10:16:41.991Z,101918.17
2018-10-19T10:25:03.079Z,101912.88
2018-10-19T10:33:24.106Z,101909.33
2018-10-19T10:41:45.112Z,101900.66
2018-10-19T10:50:06.150Z,101891.70
2018-10-19T10:58:29.266Z,101881.84
2018-10-19T11:06:51.315Z,101865.62
2018-10-19T11:15:12.638Z,101856.03
2018-10-19T11:23:37.498Z,101850.22
2018-10-19T11:31:58.510Z,101847.82
2018-10-19T11:40:19.559Z,101834.19
2018-10-19T11:48:40.599Z,101832.41
2018-10-19T11:57:01.676Z,101831.49
2018-10-19T12:05:22.746Z,101831.87
2018-10-19T12:13:43.775Z,101821.08
2018-10-19T12:22:05.818Z,101812.48
2018-10-19T12:30:26.843Z,101809.66
2018-10-19T12:38:53.250Z,101793.13
2018-10-19T12:47:14.314Z,101798.62
2018-10-19T12:55:35.314Z,101797.98
2018-10-19T13:03:56.621Z,101783.95
2018-10-19T13:12:19.706Z,101765.66
2018-10-19T13:20:41.751Z,101767.00
2018-10-19T13:29:02.782Z,101751.07
2018-10-19T13:37:23.781Z,101753.55
2018-10-19T13:45:46.859Z,101752.23
2018-10-19T13:54:07.911Z,101731.97
2018-10-19T14:02:28.912Z,101732.92
2018-10-19T14:10:53.539Z,101742.78
2018-10-19T14:27:42.907Z,101732.33
2018-10-19T14:36:03.904Z,101727.30
2018-10-19T14:44:24.955Z,101733.39
2018-10-19T14:52:46.321Z,101733.81
2018-10-19T15:01:07.773Z,101727.17
2018-10-19T15:09:34.831Z,101729.51
2018-10-19T15:17:56.009Z,101727.72
2018-10-19T15:26:17.015Z,101729.36
2018-10-19T15:34:39.128Z,101731.66
2018-10-19T15:43:00.151Z,101746.06
2018-10-19T15:59:48.395Z,101763.31
2018-10-19T16:08:09.749Z,101770.88
2018-10-19T16:24:59.462Z,101787.02
2018-10-19T16:33:20.479Z,101794.72
2018-10-19T16:41:42.545Z,101799.92
2018-10-19T16:50:03.594Z,101794.50
2018-10-19T16:58:24.644Z,101802.13
2018-10-19T17:06:45.995Z,101807.72
2018-10-19T17:15:07.093Z,101807.31
2018-10-19T17:23:28.102Z,101825.40
2018-10-19T17:31:49.238Z,101842.84
2018-10-19T17:40:10.360Z,101864.91
2018-10-19T17:48:31.367Z,101869.18
2018-10-19T17:56:58.195Z,101889.31
2018-10-19T18:05:19.206Z,101888.91
2018-10-19T18:13:40.250Z,101902.77
2018-10-19T18:22:01.519Z,101906.23
2018-10-19T18:30:24.212Z,101912.73
2018-10-19T18:38:46.323Z,101933.33
2018-10-19T18:47:07.349Z,101940.69
2018-10-19T18:55:28.358Z,101945.11
2018-10-19T19:03:50.463Z,101951.52
2018-10-19T19:12:11.603Z,101965.03
2018-10-19T19:20:32.642Z,101963.61
2018-10-19T19:28:53.751Z,101974.58
2018-10-19T19:37:14.862Z,101964.55
2018-10-19T19:45:35.891Z,101963.35
2018-10-19T19:53:56.912Z,101974.34
2018-10-19T20:02:17.960Z,101980.27
2018-10-19T20:10:38.988Z,101972.81
2018-10-19T20:19:00.026Z,101959.13
2018-10-19T20:27:21.042Z,101974.28
2018-10-19T20:35:43.176Z,101991.70
2018-10-19T20:44:04.506Z,102014.92
2018-10-19T20:52:25.852Z,102007.28
2018-10-19T21:00:49.077Z,102014.74
2018-10-19T21:09:10.053Z,102019.50
2018-10-19T21:17:31.079Z,102014.72
2018-10-19T21:25:52.073Z,102018.22
2018-10-19T21:34:13.072Z,102010.77
2018-10-19T21:42:34.083Z,102017.75
2018-10-19T21:50:55.126Z,102013.84
2018-10-19T21:59:16.205Z,102025.70
2018-10-19T22:07:37.408Z,102026.11
2018-10-19T22:15:58.395Z,102050.95
2018-10-19T22:24:19.505Z,102051.41
2018-10-19T22:32:40.586Z,102060.82
2018-10-19T22:41:01.637Z,102053.42
2018-10-19T22:49:22.648Z,102070.53
2018-10-19T22:57:43.656Z,102078.64
2018-10-19T23:06:04.688Z,102096.42
2018-10-19T23:14:25.761Z,102101.34
2018-10-19T23:22:46.911Z,102104.11
2018-10-19T23:31:08.063Z,102085.92
2018-10-19T23:39:29.363Z,102090.20
2018-10-19T23:47:50.368Z,102072.39
2018-10-19T23:56:11.394Z,102074.75
